• Join FlightAware (Why Join?)
  • Login
  • US Flag 
02:42AM EST


 

Airport Tracker/Info


-or-


 

Live Flight TrackerFlight Track Log ✈ AAL963 ✈ 11-Aug-2013 ✈ KDFW - SBGR / GRU

Flight Track Log - Related Links

Times and Time Zones

All times are in EDT time to prevent confusion due to time zone crossing. See the AAL963 flight status page for this flight to view local times or setup timezone preferences in your user account.

Time Position Orientation Groundspeed Altitude Reporting Facility
EDT Latitude Longitude Course Direction KTS MPH feet Rate Location/Type
10:06PM 32.8660 -97.0270 167° South 201 231 1,700  Level FlightAware
10:06PM 32.8490 -97.0210 163° South 201 231 2,400 1,500 Climbing FlightAware
10:06PM 32.8310 -97.0150 164° South 221 254 2,700 900 Climbing FlightAware
10:07PM 32.8080 -97.0080 166° South 249 287 3,000 1,167 Climbing FlightAware
10:07PM 32.7900 -97.0030 167° South 259 298 3,400 1,667 Climbing FlightAware
10:07PM 32.7660 -96.9960 166° South 270 311 4,000 2,182 Climbing FlightAware
10:08PM 32.7370 -96.9850 162° South 275 316 5,000 2,591 Climbing FlightAware
10:08PM 32.7130 -96.9750 161° South 274 315 5,900 2,550 Climbing FlightAware
10:08PM 32.6890 -96.9660 162° South 277 319 6,700 2,250 Climbing FlightAware
10:09PM 32.6640 -96.9570 163° South 283 326 7,400 2,250 Climbing FlightAware
10:09PM 32.6380 -96.9490 165° South 285 328 8,200 2,318 Climbing FlightAware
10:09PM 32.6070 -96.9390 165° South 286 329 9,100 2,182 Climbing FlightAware
10:10PM 32.5820 -96.9290 161° South 291 335 9,800 1,607 Climbing FlightAware
10:10PM 32.5330 -96.9090 161° South 319 367 10,600 794 Climbing FlightAware
10:11PM 32.4840 -96.8910 163° South 367 422 10,700 1,029 Climbing FlightAware
10:11PM 32.4270 -96.8690 162° South 378 435 11,800 1,714 Climbing FlightAware
10:12PM 32.3670 -96.8470 163° South 397 457 12,700 1,765 Climbing FlightAware
10:12PM 32.3040 -96.8230 162° South 409 471 13,800 1,938 Climbing FlightAware
10:13PM 32.2482 -96.8025 163° South 416 479 14,800 2,060 Climbing FlightAware ADS-B
10:14PM 32.1791 -96.7755 162° South 419 482 16,100 2,143 Climbing FlightAware ADS-B
10:14PM 32.1200 -96.7527 162° South 423 487 17,300 2,123 Climbing FlightAware ADS-B
10:15PM 32.0576 -96.7289 162° South 423 487 18,400 1,875 Climbing FlightAware ADS-B
10:15PM 31.9995 -96.7069 162° South 429 494 19,300 1,645 Climbing FlightAware ADS-B
10:16PM 31.9404 -96.6845 162° South 436 502 20,100 1,548 Climbing FlightAware ADS-B
10:16PM 31.8810 -96.6621 162° South 443 510 20,900 1,452 Climbing FlightAware ADS-B
10:17PM 31.8200 -96.6375 161° South 449 517 21,600 1,370 Climbing FlightAware ADS-B
10:18PM 31.6989 -96.5873 161° South 461 531 23,000 1,290 Climbing FlightAware ADS-B
10:20PM 31.3824 -96.4628 163° South 482 555 26,200 1,246 Climbing FlightAware ADS-B
10:21PM 31.3164 -96.4385 163° South 486 559 26,800 1,082 Climbing FlightAware ADS-B
10:21PM 31.2512 -96.4141 162° South 490 564 27,300 977 Climbing FlightAware ADS-B
10:22PM 31.2246 -96.4041 162° South 494 568 27,500 1,043 Climbing FlightAware ADS-B
10:22PM 31.1565 -96.3628 148° Southeast 492 566 28,100 973 Climbing FlightAware ADS-B
10:23PM 31.0881 -96.2885 136° Southeast 499 574 28,700 930 Climbing FlightAware ADS-B
10:23PM 31.0384 -96.2297 135° Southeast 503 579 29,200 1,131 Climbing FlightAware ADS-B
10:25PM 30.8884 -96.0526 135° Southeast 504 580 31,000 885 Climbing FlightAware ADS-B
10:25PM 30.8381 -95.9938 135° Southeast 501 577 31,000  Level FlightAware ADS-B
10:26PM 30.7886 -95.9360 135° Southeast 501 577 31,000  Level FlightAware ADS-B
10:26PM 30.7362 -95.8748 135° Southeast 501 577 31,000  Level FlightAware ADS-B
10:27PM 30.6856 -95.8160 135° Southeast 499 574 31,000  Level FlightAware ADS-B
10:27PM 30.6329 -95.7548 135° Southeast 500 575 31,000  Level FlightAware ADS-B
10:28PM 30.5815 -95.6952 135° Southeast 499 574 31,000  Level FlightAware ADS-B
10:29PM 30.4826 -95.5807 135° Southeast 496 571 31,000  Level FlightAware ADS-B
10:30PM 30.3308 -95.4055 135° Southeast 498 573 31,000  Level FlightAware ADS-B
10:31PM 30.2816 -95.3490 135° Southeast 499 574 31,000  Level FlightAware ADS-B
10:31PM 30.2321 -95.2922 135° Southeast 499 574 31,000  Level FlightAware ADS-B
10:32PM 30.1807 -95.2333 135° Southeast 500 575 31,000  Level FlightAware ADS-B
10:33PM 30.0813 -95.1196 135° Southeast 500 575 31,000  Level FlightAware ADS-B
10:34PM 30.0317 -95.0630 135° Southeast 500 575 31,000  Level FlightAware ADS-B
10:34PM 29.9822 -95.0066 135° Southeast 500 575 31,000  Level FlightAware ADS-B
10:35PM 29.9328 -94.9504 135° Southeast 498 573 31,000  Level FlightAware ADS-B
10:35PM 29.8832 -94.8940 135° Southeast 496 571 31,000  Level FlightAware ADS-B
10:36PM 29.8335 -94.8375 135° Southeast 497 572 31,000  Level FlightAware ADS-B
10:37PM 29.6833 -94.6676 135° Southeast 500 575 31,000  Level FlightAware ADS-B
10:38PM 29.6334 -94.6115 136° Southeast 501 577 31,000  Level FlightAware ADS-B
10:38PM 29.5832 -94.5549 136° Southeast 501 577 31,000  Level FlightAware ADS-B
10:39PM 29.5329 -94.4984 136° Southeast 501 577 31,000  Level FlightAware ADS-B
10:39PM 29.4822 -94.4414 136° Southeast 499 574 31,000  Level FlightAware ADS-B
10:40PM 29.4322 -94.3854 136° Southeast 496 571 31,000  Level FlightAware ADS-B
10:40PM 29.3826 -94.3298 136° Southeast 494 568 31,000  Level FlightAware ADS-B
10:41PM 29.2821 -94.2184 136° Southeast 498 573 31,000  Level FlightAware ADS-B
10:42PM 29.2324 -94.1633 136° Southeast 497 572 31,000  Level FlightAware ADS-B
10:42PM 29.1808 -94.1064 136° Southeast 496 571 31,000  Level FlightAware ADS-B
10:43PM 29.1411 -94.0628 136° Southeast 495 570 31,000  Level Houston Center
10:44PM 29.0414 -93.9531 136° Southeast 496 571 31,000  Level Houston Center
10:45PM 28.9442 -93.8461 136° Southeast 495 570 31,000  Level Houston Center
10:46PM 28.8444 -93.7356 136° Southeast 491 565 31,000  Level Houston Center
10:47PM 28.7219 -93.6031 136° Southeast 503 579 31,000 -49 Level Houston Center
10:48PM 28.6247 -93.4958 136° Southeast 501 577 30,900  Descending Houston Center
10:49PM 28.5219 -93.3822 136° Southeast 502 578 31,000 49 Climbing Houston Center
10:50PM 28.4208 -93.2733 137° Southeast 501 577 31,000  Level Houston Center
10:51PM 28.3225 -93.1689 137° Southeast 500 575 31,000 -49 Level Houston Center
10:52PM 28.2217 -93.0592 136° Southeast 502 578 30,900  Descending Houston Center
10:53PM 28.1214 -92.9500 136° Southeast 501 577 31,000 49 Climbing Houston Center
10:54PM 28.0197 -92.8425 137° Southeast 500 575 31,000 -49 Level Houston Center
10:55PM 27.9172 -92.7347 137° Southeast 502 578 30,900 -49 Descending Houston Center
10:56PM 27.8169 -92.6258 136° Southeast 501 577 30,900 49 Level Houston Center
10:57PM 27.6947 -92.4969 137° Southeast 501 577 31,000  Climbing Houston Center
10:58PM 27.5936 -92.3894 137° Southeast 500 575 30,900  Descending Houston Center
10:59PM 27.4919 -92.2825 137° Southeast 501 577 31,000  Climbing Houston Center
11:00PM 27.3897 -92.1767 137° Southeast 500 575 30,900 -50 Descending Houston Center
11:01PM 27.2892 -92.0689 136° Southeast 500 575 30,900 49 Level Houston Center
11:02PM 27.1858 -91.9631 138° Southeast 501 577 31,000 49 Climbing Houston Center
11:03PM 27.0756 -91.8689 143° Southeast 500 575 31,000 -49 Level Houston Center
11:04PM 26.9603 -91.7778 145° Southeast 506 582 30,900  Descending Houston Center
11:05PM 26.8453 -91.6853 144° Southeast 504 580 31,000 Climbing Houston Center
11:07PM 26.6887 -91.5577 144° Southeast  Level FlightAware Approximate
11:14PM 25.9193 -90.9446 145° Southeast  Level FlightAware Approximate
11:15PM 25.8088 -90.8583 145° Southeast  Level FlightAware Approximate
11:16PM 25.6982 -90.7721 145° Southeast  Level FlightAware Approximate
11:17PM 25.5877 -90.6860 145° Southeast  Level FlightAware Approximate
11:18PM 25.4770 -90.6001 145° Southeast  Level FlightAware Approximate
11:19PM 25.3664 -90.5144 145° Southeast  Level FlightAware Approximate
11:20PM 25.2556 -90.4288 145° Southeast  Level FlightAware Approximate
11:21PM 25.1448 -90.3434 145° Southeast  Level FlightAware Approximate
11:22PM 25.0340 -90.2581 145° Southeast  Level FlightAware Approximate
11:23PM 24.9231 -90.1730 145° Southeast  Level FlightAware Approximate
11:24PM 24.8122 -90.0881 145° Southeast  Level FlightAware Approximate
11:25PM 24.7012 -90.0033 145° Southeast  Level FlightAware Approximate
11:26PM 24.5902 -89.9186 145° Southeast  Level FlightAware Approximate
11:27PM 24.4808 -89.8314 145° Southeast  Level FlightAware Approximate
11:28PM 24.3693 -89.7472 145° Southeast  Level FlightAware Approximate
11:29PM 24.2577 -89.6631 145° Southeast  Level FlightAware Approximate
11:30PM 24.1462 -89.5792 146° Southeast  Level FlightAware Approximate
11:31PM 24.0345 -89.4954 146° Southeast  Level FlightAware Approximate
11:32PM 23.9228 -89.4117 146° Southeast  Level FlightAware Approximate
11:33PM 23.8111 -89.3282 146° Southeast  Level FlightAware Approximate
11:34PM 23.6994 -89.2449 146° Southeast  Level FlightAware Approximate
11:34PM 23.5600 -89.1430 146° Southeast 513 590 31,000  Level FlightAware
11:34PM 23.4970 -89.0960 146° Southeast 513 590 31,000  Level FlightAware
11:35PM 23.4210 -89.0390 145° Southeast 512 589 31,000  Level FlightAware
11:35PM 23.3500 -88.9850 145° Southeast 512 589 31,000  Level FlightAware
11:36PM 23.2890 -88.9390 145° Southeast 512 589 31,000  Level FlightAware
11:37PM 23.2290 -88.8940 145° Southeast 512 589 31,000  Level FlightAware
11:37PM 23.1700 -88.8480 144° Southeast 512 589 31,000 878 Level FlightAware
11:38PM 23.0380 -88.7540 147° Southeast 515 593 32,200 1,286 Climbing FlightAware
11:39PM 22.9640 -88.7000 146° Southeast 515 593 32,800 706 Climbing FlightAware
11:39PM 22.9070 -88.6580 146° Southeast 513 590 33,000 176 Climbing FlightAware
11:40PM 22.8290 -88.6000 146° Southeast 515 593 33,000  Level FlightAware
11:40PM 22.7660 -88.5530 145° Southeast 515 593 33,000  Level FlightAware
11:41PM 22.6930 -88.4990 146° Southeast 516 594 33,000  Level FlightAware
11:42PM 22.6200 -88.4450 146° Southeast 516 594 33,000  Level FlightAware
11:42PM 22.5550 -88.3860 140° Southeast 516 594 33,000  Level FlightAware
11:43PM 22.4990 -88.3290 137° Southeast 516 594 33,000  Level FlightAware
11:43PM 22.4390 -88.2680 137° Southeast 517 595 33,000  Level FlightAware
11:44PM 22.3890 -88.2170 137° Southeast 517 595 33,000  Level FlightAware
11:44PM 22.3240 -88.1510 137° Southeast 519 597 33,000  Level FlightAware
11:45PM 22.2740 -88.1000 137° Southeast 519 597 33,000  Level FlightAware
11:46PM 22.2140 -88.0390 137° Southeast 520 598 33,000  Level FlightAware
11:46PM 22.1370 -87.9620 137° Southeast 517 595 33,000  Level FlightAware
11:47PM 22.0740 -87.8990 137° Southeast 517 595 33,000  Level FlightAware
11:48PM 21.9980 -87.8220 137° Southeast 517 595 33,000  Level FlightAware
11:48PM 21.9360 -87.7600 137° Southeast 517 595 33,000  Level FlightAware
11:49PM 21.8780 -87.7010 137° Southeast 517 595 33,000  Level FlightAware
11:49PM 21.8040 -87.6270 137° Southeast 517 595 33,000  Level FlightAware
11:50PM 21.7390 -87.5630 138° Southeast 516 594 33,000  Level FlightAware
11:51PM 21.6770 -87.5010 137° Southeast 517 595 33,000  Level FlightAware
11:51PM 21.6120 -87.4370 138° Southeast 518 596 33,000  Level FlightAware
11:52PM 21.5570 -87.3820 137° Southeast 517 595 33,000  Level FlightAware
11:52PM 21.4920 -87.3180 138° Southeast 517 595 33,000  Level FlightAware
11:53PM 21.4260 -87.2540 138° Southeast 518 596 33,000  Level FlightAware
11:53PM 21.3650 -87.1920 137° Southeast 516 594 33,000  Level FlightAware
11:54PM 21.3050 -87.1340 138° Southeast 515 593 33,000  Level FlightAware
11:55PM 21.2410 -87.0710 137° Southeast 514 592 33,000  Level FlightAware
11:55PM 21.1850 -87.0150 137° Southeast 515 593 33,000  Level FlightAware
11:56PM 21.1320 -86.9450 129° Southeast 512 589 33,000  Level FlightAware
11:56PM 21.0810 -86.8710 126° Southeast 512 589 33,000  Level FlightAware
11:57PM 21.0300 -86.7980 127° Southeast 512 589 33,000  Level FlightAware
11:57PM 20.9840 -86.7340 128° Southeast 513 590 33,000  Level FlightAware
11:58PM 20.9160 -86.6790 143° Southeast 516 594 33,000  Level FlightAware
11:59PM 20.8440 -86.6350 150° Southeast 515 593 33,000  Level FlightAware
11:59PM 20.7700 -86.6030 158° South 516 594 33,000  Level FlightAware
12:00AM 20.6930 -86.5730 160° South 516 594 33,000  Level FlightAware
12:00AM 20.6140 -86.5410 159° South 516 594 33,000  Level FlightAware
12:01AM 20.5320 -86.5080 159° South 516 594 33,000  Level FlightAware
12:02AM 20.4550 -86.4700 155° Southeast 518 596 33,000  Level FlightAware
12:02AM 20.3790 -86.4220 149° Southeast 517 595 33,000  Level FlightAware
12:03AM 20.3130 -86.3820 150° Southeast 517 595 33,000  Level FlightAware
12:03AM 20.2390 -86.3360 150° Southeast 515 593 33,000  Level FlightAware
12:04AM 20.1680 -86.2770 142° Southeast 513 590 33,000  Level FlightAware
12:04AM 20.1190 -86.2150 130° Southeast 511 588 33,000  Level FlightAware
12:05AM 20.0640 -86.1450 130° Southeast 512 589 33,000  Level FlightAware
12:06AM 20.0090 -86.0750 130° Southeast 512 589 33,000  Level FlightAware
12:06AM 19.9550 -86.0070 130° Southeast 513 590 33,000  Level FlightAware
12:07AM 19.9070 -85.9450 129° Southeast 514 592 33,000  Level FlightAware
12:07AM 19.8620 -85.8690 122° Southeast 508 585 33,000  Level FlightAware
12:08AM 19.8100 -85.7980 128° Southeast 509 586 33,000  Level FlightAware
12:09AM 19.7480 -85.7330 135° Southeast 509 586 33,000  Level FlightAware
12:09AM 19.6950 -85.6790 136° Southeast 509 586 33,000  Level FlightAware
12:10AM 19.6320 -85.6160 137° Southeast 509 586 33,000  Level FlightAware
12:10AM 19.5720 -85.5540 136° Southeast 509 586 33,000  Level FlightAware
12:11AM 19.5160 -85.4970 136° Southeast 509 586 33,000  Level FlightAware
12:12AM 19.4420 -85.4210 136° Southeast 512 589 33,000  Level FlightAware
12:12AM 19.3670 -85.3430 136° Southeast 512 589 33,000  Level FlightAware
12:13AM 19.3110 -85.2840 135° Southeast 512 589 33,000  Level FlightAware
12:14AM 19.2600 -85.2300 135° Southeast 512 589 33,000  Level FlightAware
12:14AM 19.2090 -85.1760 135° Southeast 512 589 33,000  Level FlightAware
12:15AM 19.1580 -85.1210 134° Southeast 512 589 33,000  Level FlightAware
12:16AM 19.1050 -85.0660 136° Southeast 512 589 33,000  Level FlightAware
12:16AM 19.0540 -85.0110 134° Southeast 512 589 33,000  Level FlightAware
12:17AM 19.0010 -84.9560 136° Southeast 512 589 33,000  Level FlightAware
12:17AM 18.9500 -84.9010 134° Southeast 512 589 33,000  Level FlightAware
12:18AM 18.8970 -84.8460 136° Southeast 512 589 33,000  Level FlightAware
12:19AM 18.8440 -84.7900 135° Southeast 512 589 33,000  Level FlightAware
12:19AM 18.7930 -84.7360 135° Southeast 512 589 33,000  Level FlightAware
12:20AM 18.7420 -84.6820 135° Southeast 512 589 33,000  Level FlightAware
12:20AM 18.6910 -84.6280 135° Southeast 512 589 33,000  Level FlightAware
12:21AM 18.6390 -84.5740 135° Southeast 512 589 33,000  Level FlightAware
12:22AM 18.5880 -84.5200 135° Southeast 512 589 33,000  Level FlightAware
12:24AM 18.3965 -84.3321 137° Southeast  Level Estimated
12:25AM 18.2973 -84.2351 137° Southeast  Level Estimated
12:26AM 18.1981 -84.1381 137° Southeast  Level Estimated
12:27AM 18.0989 -84.0413 137° Southeast  Level Estimated
12:28AM 17.9996 -83.9446 137° Southeast  Level Estimated
12:29AM 17.9002 -83.8480 137° Southeast  Level Estimated
12:30AM 17.8008 -83.7516 137° Southeast  Level Estimated
12:31AM 17.7014 -83.6552 137° Southeast  Level Estimated
12:32AM 17.6019 -83.5589 137° Southeast  Level Estimated
12:33AM 17.5024 -83.4628 137° Southeast  Level Estimated
12:34AM 17.4028 -83.3667 137° Southeast  Level Estimated
12:35AM 17.3032 -83.2708 137° Southeast  Level Estimated
12:36AM 17.2035 -83.1749 137° Southeast  Level Estimated
12:37AM 17.1038 -83.0792 137° Southeast  Level Estimated
12:38AM 17.0040 -82.9835 137° Southeast  Level Estimated
12:39AM 16.9042 -82.8880 138° Southeast  Level Estimated
12:40AM 16.8044 -82.7925 138° Southeast  Level Estimated
12:41AM 16.7045 -82.6972 138° Southeast  Level Estimated
12:42AM 16.6046 -82.6020 138° Southeast  Level Estimated
12:43AM 16.5046 -82.5068 138° Southeast  Level Estimated
12:44AM 16.4046 -82.4118 138° Southeast  Level Estimated
12:45AM 16.3045 -82.3168 138° Southeast  Level Estimated
12:46AM 16.2044 -82.2220 138° Southeast  Level Estimated
12:47AM 16.1042 -82.1272 138° Southeast  Level Estimated
12:48AM 16.0040 -82.0326 138° Southeast  Level Estimated
12:49AM 15.9038 -81.9380 138° Southeast  Level Estimated
12:50AM 15.8035 -81.8436 138° Southeast  Level Estimated
12:51AM 15.7032 -81.7492 138° Southeast  Level Estimated
12:52AM 15.6029 -81.6549 138° Southeast  Level Estimated
12:53AM 15.5025 -81.5607 138° Southeast  Level Estimated
12:54AM 15.4021 -81.4666 138° Southeast  Level Estimated
12:55AM 15.3016 -81.3726 138° Southeast  Level Estimated
12:56AM 15.2011 -81.2787 138° Southeast  Level Estimated
12:57AM 15.1005 -81.1849 138° Southeast  Level Estimated
12:58AM 15.0000 -81.0911 138° Southeast  Level Estimated
12:59AM 14.8993 -80.9975 138° Southeast  Level Estimated
01:00AM 14.7986 -80.9039 138° Southeast  Level Estimated
01:01AM 14.6980 -80.8104 138° Southeast  Level Estimated
01:02AM 14.5972 -80.7170 138° Southeast  Level Estimated
01:03AM 14.4964 -80.6237 138° Southeast  Level Estimated
01:04AM 14.3956 -80.5305 138° Southeast  Level Estimated
01:05AM 14.2948 -80.4374 138° Southeast  Level Estimated
01:06AM 14.1939 -80.3444 138° Southeast  Level Estimated
01:07AM 14.0929 -80.2514 138° Southeast  Level Estimated
01:08AM 13.9920 -80.1585 138° Southeast  Level Estimated
01:09AM 13.8910 -80.0657 138° Southeast  Level Estimated
01:10AM 13.7900 -79.9730 138° Southeast  Level Estimated
01:11AM 13.6889 -79.8803 138° Southeast  Level Estimated
01:12AM 13.5878 -79.7878 138° Southeast  Level Estimated
01:13AM 13.4867 -79.6953 138° Southeast  Level Estimated
01:14AM 13.3855 -79.6029 138° Southeast  Level Estimated
01:15AM 13.2843 -79.5106 138° Southeast  Level Estimated
01:16AM 13.1831 -79.4183 138° Southeast  Level Estimated
01:17AM 13.0818 -79.3261 138° Southeast  Level Estimated
01:18AM 12.9805 -79.2340 138° Southeast  Level Estimated
01:19AM 12.8792 -79.1420 138° Southeast  Level Estimated
01:20AM 12.7778 -79.0501 138° Southeast  Level Estimated
01:21AM 12.6764 -78.9582 139° Southeast  Level Estimated
01:22AM 12.5750 -78.8664 139° Southeast  Level Estimated
01:23AM 12.4735 -78.7747 139° Southeast  Level Estimated
01:24AM 12.3720 -78.6830 139° Southeast  Level Estimated
01:25AM 12.2705 -78.5914 139° Southeast  Level Estimated
01:26AM 12.1690 -78.4999 139° Southeast  Level Estimated
01:27AM 12.0674 -78.4084 139° Southeast  Level Estimated
01:28AM 11.9658 -78.3171 139° Southeast  Level Estimated
01:29AM 11.8641 -78.2258 139° Southeast  Level Estimated
01:30AM 11.7625 -78.1345 139° Southeast  Level Estimated
01:31AM 11.6608 -78.0433 139° Southeast  Level Estimated
01:32AM 11.5590 -77.9522 139° Southeast  Level Estimated
01:33AM 11.4573 -77.8612 139° Southeast  Level Estimated
01:34AM 11.3555 -77.7702 139° Southeast  Level Estimated
01:35AM 11.2537 -77.6793 139° Southeast  Level Estimated
01:36AM 11.1518 -77.5885 139° Southeast  Level Estimated
01:37AM 11.0500 -77.4977 139° Southeast  Level Estimated
01:38AM 10.9481 -77.4070 139° Southeast  Level Estimated
01:39AM 10.8462 -77.3163 139° Southeast  Level Estimated
01:40AM 10.7442 -77.2257 139° Southeast  Level Estimated
01:41AM 10.6422 -77.1352 139° Southeast  Level Estimated
01:41AM 11.1370 -77.2340 139° Southeast 484 557 33,000  Level FlightAware
01:41AM 11.0580 -77.1690 141° Southeast 484 557 33,000  Level FlightAware
01:42AM 10.5402 -77.0447 139° Southeast  Level Estimated
01:42AM 10.9960 -77.1170 141° Southeast 484 557 33,000  Level FlightAware
01:43AM 10.9430 -77.0730 141° Southeast 484 557 33,000  Level FlightAware
01:43AM 10.8670 -77.0090 140° Southeast 484 557 33,000  Level FlightAware
01:44AM 10.8150 -76.9640 140° Southeast 484 557 33,000  Level FlightAware
01:45AM 10.7620 -76.9200 141° Southeast 484 557 33,000  Level FlightAware
01:45AM 10.7080 -76.8730 139° Southeast 484 557 33,000  Level FlightAware
01:46AM 10.6250 -76.7820 133° Southeast 488 562 33,000  Level FlightAware
01:46AM 10.5540 -76.7100 135° Southeast 487 560 33,000  Level FlightAware
01:47AM 10.4910 -76.6460 135° Southeast 487 560 33,000  Level FlightAware
01:48AM 10.4330 -76.5870 135° Southeast 494 568 33,000  Level FlightAware
01:48AM 10.3750 -76.5370 140° Southeast 495 570 33,000  Level FlightAware
01:49AM 10.3090 -76.4840 142° Southeast 497 572 33,000  Level FlightAware
01:49AM 10.2480 -76.4360 142° Southeast 497 572 33,000  Level FlightAware
01:50AM 10.1720 -76.3750 142° Southeast 497 572 33,000  Level FlightAware
01:51AM 10.1080 -76.3250 142° Southeast 498 573 33,000  Level FlightAware
01:51AM 10.0450 -76.2750 142° Southeast 498 573 33,000  Level FlightAware
01:52AM 9.9830 -76.2250 142° Southeast 498 573 33,000  Level FlightAware
01:52AM 9.9230 -76.1770 142° Southeast 499 574 33,000  Level FlightAware
01:53AM 9.8560 -76.1240 142° Southeast 496 571 33,000  Level FlightAware
01:54AM 9.7910 -76.0720 142° Southeast 496 571 33,000  Level FlightAware
01:54AM 9.7290 -76.0240 143° Southeast 496 571 33,000  Level FlightAware
01:55AM 9.6620 -75.9700 142° Southeast 494 568 33,000  Level FlightAware
01:55AM 9.6010 -75.9220 142° Southeast 495 570 33,000  Level FlightAware
01:56AM 9.5440 -75.8770 142° Southeast 494 568 33,000  Level FlightAware
01:57AM 9.4510 -75.8040 142° Southeast 494 568 33,000  Level FlightAware
01:58AM 9.3620 -75.7330 142° Southeast 494 568 33,000  Level FlightAware
01:58AM 9.2950 -75.6800 142° Southeast 492 566 33,000  Level FlightAware
01:59AM 9.2270 -75.6260 142° Southeast 490 564 33,000  Level FlightAware
02:00AM 9.1430 -75.5600 142° Southeast 490 564 33,000  Level FlightAware
02:00AM 9.0780 -75.5090 142° Southeast 491 565 33,000  Level FlightAware
02:01AM 9.0100 -75.4550 142° Southeast 491 565 33,000  Level FlightAware
02:01AM 8.9450 -75.4040 142° Southeast 491 565 33,000  Level FlightAware
02:02AM 8.8870 -75.3580 142° Southeast 491 565 33,000  Level FlightAware
02:03AM 8.8220 -75.3070 142° Southeast 486 559 33,000  Level FlightAware
02:03AM 8.7670 -75.2630 142° Southeast 487 560 33,000  Level FlightAware
02:04AM 8.7040 -75.2140 142° Southeast 487 560 33,000  Level FlightAware
02:04AM 8.6170 -75.1460 142° Southeast 487 560 33,000  Level FlightAware
02:05AM 8.5640 -75.1040 142° Southeast 485 558 33,000  Level FlightAware
02:06AM 8.4860 -75.0420 142° Southeast 484 557 33,000  Level FlightAware
02:06AM 8.4220 -74.9930 143° Southeast 482 555 33,000  Level FlightAware
02:07AM 8.3610 -74.9450 142° Southeast 483 556 33,000  Level FlightAware
02:07AM 8.3010 -74.8970 142° Southeast 485 558 33,000  Level FlightAware
02:08AM 8.2360 -74.8460 142° Southeast 487 560 33,000  Level FlightAware
02:09AM 8.1740 -74.7980 143° Southeast 488 562 33,000  Level FlightAware
02:09AM 8.1160 -74.7470 139° Southeast 487 560 33,000  Level FlightAware
02:09AM 8.0990 -74.7230 126° Southeast 487 560 33,000  Level FlightAware
02:10AM 8.0590 -74.6330 114° Southeast 490 564 33,000  Level FlightAware
02:11AM 8.0300 -74.5580 111° Southeast 489 563 33,000  Level FlightAware
02:11AM 8.0060 -74.4950 111° Southeast 487 560 33,000  Level FlightAware
02:12AM 7.9740 -74.4100 111° Southeast 485 558 33,000  Level FlightAware
02:13AM 7.9470 -74.3380 111° Southeast 485 558 33,000  Level FlightAware
02:13AM 7.9200 -74.2620 110° East 485 558 33,000  Level FlightAware
02:14AM 7.8900 -74.1790 110° East 486 559 33,000  Level FlightAware
02:14AM 7.8580 -74.0910 110° East 485 558 33,000  Level FlightAware
02:15AM 7.8300 -74.0200 112° Southeast 484 557 33,000  Level FlightAware
02:15AM 7.8030 -73.9560 113° Southeast 485 558 33,000  Level FlightAware
02:16AM 7.7720 -73.8820 113° Southeast 485 558 33,000  Level FlightAware
02:17AM 7.7450 -73.8160 112° Southeast 484 557 33,000  Level FlightAware
02:17AM 7.7170 -73.7500 113° Southeast 484 557 33,000  Level FlightAware
02:18AM 7.6900 -73.6870 113° Southeast 484 557 33,000  Level FlightAware
02:19AM 7.6640 -73.6230 112° Southeast 484 557 33,000  Level FlightAware
02:19AM 7.6370 -73.5590 113° Southeast 484 557 33,000  Level FlightAware
02:20AM 7.5870 -73.4230 110° East 491 565 33,000  Level FlightAware
02:20AM 7.5580 -73.3510 112° Southeast 491 565 33,000  Level FlightAware
02:21AM 7.5320 -73.2860 112° Southeast 491 565 33,000  Level FlightAware
02:22AM 7.5060 -73.2210 112° Southeast 491 565 33,000  Level FlightAware
02:22AM 7.4660 -73.1490 119° Southeast 844 971 33,000  Level FlightAware
02:23AM 7.4170 -73.0940 132° Southeast 498 573 33,000  Level FlightAware
02:23AM 7.3690 -73.0390 131° Southeast 498 573 33,000  Level FlightAware
02:24AM 7.3220 -72.9830 130° Southeast 498 573 33,000  Level FlightAware
02:24AM 7.2740 -72.9280 131° Southeast 498 573 33,000  Level FlightAware
02:25AM 7.2280 -72.8750 131° Southeast 498 573 33,000  Level FlightAware
02:26AM 7.1820 -72.8210 131° Southeast 498 573 33,000  Level FlightAware
02:26AM 7.1350 -72.7670 131° Southeast 498 573 33,000  Level FlightAware
02:27AM 7.0880 -72.7120 131° Southeast 498 573 33,000  Level FlightAware
02:27AM 7.0420 -72.6590 131° Southeast 498 573 33,000  Level FlightAware
02:28AM 6.9950 -72.6050 131° Southeast 498 573 33,000  Level FlightAware
02:29AM 6.9490 -72.5520 131° Southeast 498 573 33,000  Level FlightAware
02:29AM 6.9030 -72.4980 131° Southeast 498 573 33,000  Level FlightAware
02:30AM 6.8560 -72.4440 131° Southeast 498 573 33,000  Level FlightAware
02:30AM 6.8100 -72.3910 131° Southeast 498 573 33,000  Level FlightAware
02:31AM 6.7630 -72.3360 131° Southeast 498 573 33,000  Level FlightAware
02:32AM 6.7190 -72.2850 131° Southeast 498 573 33,000 11 Level FlightAware
02:34AM 6.5185 -72.1210 141° Southeast  Level Estimated
02:35AM 6.4148 -72.0362 141° Southeast  Level Estimated
02:36AM 6.3110 -71.9515 141° Southeast  Level Estimated
02:37AM 6.2073 -71.8668 141° Southeast  Level Estimated
02:38AM 6.1035 -71.7821 141° Southeast  Level Estimated
02:39AM 5.9998 -71.6974 141° Southeast  Level Estimated
02:40AM 5.8960 -71.6128 141° Southeast  Level Estimated
02:41AM 5.7922 -71.5283 141° Southeast  Level Estimated
02:42AM 5.6883 -71.4437 141° Southeast  Level Estimated
02:43AM 5.5845 -71.3592 141° Southeast  Level Estimated
02:44AM 5.4807 -71.2747 141° Southeast  Level Estimated
02:45AM 5.3768 -71.1902 141° Southeast  Level Estimated
02:46AM 5.2730 -71.1058 141° Southeast  Level Estimated
02:47AM 5.1691 -71.0214 141° Southeast  Level Estimated
02:48AM 5.0652 -70.9370 141° Southeast  Level Estimated
02:49AM 4.9613 -70.8527 141° Southeast  Level Estimated
02:50AM 4.8579 -70.7688 141° Southeast  Level Estimated
02:51AM 4.7546 -70.6850 141° Southeast  Level Estimated
02:52AM 4.6512 -70.6012 141° Southeast  Level Estimated
02:53AM 4.5478 -70.5174 141° Southeast  Level Estimated
02:54AM 4.4444 -70.4336 141° Southeast  Level Estimated
02:55AM 4.3410 -70.3498 141° Southeast  Level Estimated
02:56AM 4.2376 -70.2661 141° Southeast  Level Estimated
02:57AM 4.1342 -70.1824 141° Southeast  Level Estimated
02:58AM 4.0308 -70.0987 141° Southeast  Level Estimated
02:59AM 3.9273 -70.0151 141° Southeast  Level Estimated
03:00AM 3.8239 -69.9314 141° Southeast  Level Estimated
03:01AM 3.7204 -69.8478 141° Southeast  Level Estimated
03:02AM 3.6170 -69.7642 141° Southeast  Level Estimated
03:03AM 3.5135 -69.6806 141° Southeast  Level Estimated
03:04AM 3.4100 -69.5971 141° Southeast  Level Estimated
03:05AM 3.3065 -69.5135 141° Southeast  Level Estimated
03:06AM 3.2030 -69.4300 141° Southeast  Level Estimated
03:07AM 3.0996 -69.3465 141° Southeast  Level Estimated
03:08AM 2.9960 -69.2630 141° Southeast  Level Estimated
03:09AM 2.8925 -69.1795 141° Southeast  Level Estimated
03:10AM 2.7890 -69.0961 141° Southeast  Level Estimated
03:11AM 2.6855 -69.0126 141° Southeast  Level Estimated
03:12AM 2.5820 -68.9292 141° Southeast  Level Estimated
03:13AM 2.4784 -68.8458 141° Southeast  Level Estimated
03:14AM 2.3749 -68.7624 141° Southeast  Level Estimated
03:15AM 2.2713 -68.6790 141° Southeast  Level Estimated
03:16AM 2.1678 -68.5956 141° Southeast  Level Estimated
03:17AM 2.0642 -68.5122 141° Southeast  Level Estimated
03:18AM 1.9607 -68.4289 141° Southeast  Level Estimated
03:19AM 1.8571 -68.3455 141° Southeast  Level Estimated
03:20AM 1.7536 -68.2622 141° Southeast  Level Estimated
03:21AM 1.6500 -68.1789 141° Southeast  Level Estimated
03:22AM 1.5464 -68.0955 141° Southeast  Level Estimated
03:23AM 1.4428 -68.0122 141° Southeast  Level Estimated
03:24AM 1.3393 -67.9289 141° Southeast  Level Estimated
03:25AM 1.2357 -67.8456 141° Southeast  Level Estimated
03:26AM 1.1321 -67.7623 141° Southeast  Level Estimated
03:27AM 1.0285 -67.6791 141° Southeast  Level Estimated
03:28AM 0.9249 -67.5958 141° Southeast  Level Estimated
03:29AM 0.8213 -67.5125 141° Southeast  Level Estimated
03:30AM 0.7177 -67.4292 141° Southeast  Level Estimated
03:31AM 0.6141 -67.3460 141° Southeast  Level Estimated
03:32AM 0.5105 -67.2627 141° Southeast  Level Estimated
03:33AM 0.4069 -67.1795 141° Southeast  Level Estimated
03:34AM 0.3033 -67.0962 141° Southeast  Level Estimated
03:35AM 0.1997 -67.0129 141° Southeast  Level Estimated
03:36AM 0.0961 -66.9297 141° Southeast  Level Estimated
03:37AM -0.0075 -66.8464 141° Southeast  Level Estimated
03:38AM -0.1111 -66.7632 141° Southeast  Level Estimated
03:39AM -0.2147 -66.6799 141° Southeast  Level Estimated
03:40AM -0.3183 -66.5966 141° Southeast  Level Estimated
03:41AM -0.4219 -66.5134 141° Southeast  Level Estimated
03:42AM -0.5255 -66.4301 141° Southeast  Level Estimated
03:43AM -0.6291 -66.3468 141° Southeast  Level Estimated
03:44AM -0.7327 -66.2636 141° Southeast  Level Estimated
03:45AM -0.8363 -66.1803 141° Southeast  Level Estimated
03:46AM -0.9398 -66.0970 141° Southeast  Level Estimated
03:47AM -1.0434 -66.0137 141° Southeast  Level Estimated
03:48AM -1.1470 -65.9305 141° Southeast  Level Estimated
03:49AM -1.2506 -65.8472 141° Southeast  Level Estimated
03:50AM -1.3542 -65.7639 141° Southeast  Level Estimated
03:51AM -1.4578 -65.6806 141° Southeast  Level Estimated
03:52AM -1.5614 -65.5973 141° Southeast  Level Estimated
03:53AM -1.6649 -65.5139 141° Southeast  Level Estimated
03:54AM -1.7685 -65.4306 141° Southeast  Level Estimated
03:55AM -1.8721 -65.3473 141° Southeast  Level Estimated
03:56AM -1.9756 -65.2639 141° Southeast  Level Estimated
03:57AM -2.0792 -65.1805 141° Southeast  Level Estimated
03:58AM -2.1827 -65.0972 141° Southeast  Level Estimated
03:59AM -2.2863 -65.0138 141° Southeast  Level Estimated
04:00AM -2.3898 -64.9304 141° Southeast  Level Estimated
04:01AM -2.4934 -64.8470 141° Southeast  Level Estimated
04:02AM -2.5969 -64.7636 141° Southeast  Level Estimated
04:03AM -2.7004 -64.6802 141° Southeast  Level Estimated
04:04AM -2.8040 -64.5967 141° Southeast  Level Estimated
04:05AM -2.9075 -64.5132 141° Southeast  Level Estimated
04:06AM -3.0110 -64.4298 141° Southeast  Level Estimated
04:07AM -3.1145 -64.3463 141° Southeast  Level Estimated
04:08AM -3.2180 -64.2628 141° Southeast  Level Estimated
04:09AM -3.3215 -64.1792 141° Southeast  Level Estimated
04:10AM -3.4249 -64.0957 141° Southeast  Level Estimated
04:11AM -3.5284 -64.0121 141° Southeast  Level Estimated
04:12AM -3.6319 -63.9286 141° Southeast  Level Estimated
04:13AM -3.7354 -63.8450 141° Southeast  Level Estimated
04:14AM -3.8388 -63.7613 141° Southeast  Level Estimated
04:15AM -3.9423 -63.6777 141° Southeast  Level Estimated
04:16AM -4.0457 -63.5940 141° Southeast  Level Estimated
04:17AM -4.1491 -63.5103 141° Southeast  Level Estimated
04:18AM -4.2526 -63.4267 141° Southeast  Level Estimated
04:19AM -4.3562 -63.3428 141° Southeast  Level Estimated
04:20AM -4.4597 -63.2589 141° Southeast  Level Estimated
04:21AM -4.5633 -63.1749 141° Southeast  Level Estimated
04:22AM -4.6669 -63.0910 141° Southeast  Level Estimated
04:23AM -4.7705 -63.0070 141° Southeast  Level Estimated
04:24AM -4.8740 -62.9230 141° Southeast  Level Estimated
04:25AM -4.9775 -62.8390 141° Southeast  Level Estimated
04:26AM -5.0811 -62.7550 141° Southeast  Level Estimated
04:27AM -5.1846 -62.6709 141° Southeast  Level Estimated
04:28AM -5.2881 -62.5868 141° Southeast  Level Estimated
04:29AM -5.3916 -62.5027 141° Southeast  Level Estimated
04:30AM -5.4950 -62.4185 141° Southeast  Level Estimated
04:31AM -5.5985 -62.3343 141° Southeast  Level Estimated
04:32AM -5.7020 -62.2501 141° Southeast  Level Estimated
04:33AM -5.8054 -62.1658 141° Southeast  Level Estimated
04:34AM -5.9089 -62.0816 141° Southeast  Level Estimated
04:35AM -6.0123 -61.9972 141° Southeast  Level Estimated
04:36AM -6.1157 -61.9129 141° Southeast  Level Estimated
04:37AM -6.2191 -61.8285 141° Southeast  Level Estimated
04:38AM -6.3225 -61.7441 141° Southeast  Level Estimated
04:39AM -6.4258 -61.6596 141° Southeast  Level Estimated
04:40AM -6.5292 -61.5752 141° Southeast  Level Estimated
04:41AM -6.6325 -61.4907 141° Southeast  Level Estimated
04:42AM -6.7358 -61.4061 141° Southeast  Level Estimated
04:43AM -6.8391 -61.3215 141° Southeast  Level Estimated
04:44AM -6.9424 -61.2369 141° Southeast  Level Estimated
04:45AM -7.0457 -61.1522 141° Southeast  Level Estimated
04:46AM -7.1490 -61.0675 141° Southeast  Level Estimated
04:47AM -7.2522 -60.9828 141° Southeast  Level Estimated
04:48AM -7.3555 -60.8980 141° Southeast  Level Estimated
04:49AM -7.4587 -60.8132 141° Southeast  Level Estimated
04:50AM -7.5619 -60.7284 141° Southeast  Level Estimated
04:51AM -7.6651 -60.6435 141° Southeast  Level Estimated
04:52AM -7.7682 -60.5585 141° Southeast  Level Estimated
04:53AM -7.8714 -60.4736 141° Southeast  Level Estimated
04:54AM -7.9745 -60.3885 141° Southeast  Level Estimated
04:55AM -8.0776 -60.3035 141° Southeast  Level Estimated
04:56AM -8.1807 -60.2184 141° Southeast  Level Estimated
04:57AM -8.2838 -60.1332 141° Southeast  Level Estimated
04:58AM -8.3869 -60.0480 141° Southeast  Level Estimated
04:59AM -8.4899 -59.9628 141° Southeast  Level Estimated
05:00AM -8.5929 -59.8775 141° Southeast  Level Estimated
05:01AM -8.6959 -59.7922 141° Southeast  Level Estimated
05:02AM -8.7989 -59.7068 141° Southeast  Level Estimated
05:03AM -8.9019 -59.6214 141° Southeast  Level Estimated
05:04AM -9.0049 -59.5359 141° Southeast  Level Estimated
05:05AM -9.1078 -59.4504 141° Southeast  Level Estimated
05:06AM -9.2107 -59.3648 141° Southeast  Level Estimated
05:07AM -9.3136 -59.2792 141° Southeast  Level Estimated
05:08AM -9.4165 -59.1935 141° Southeast  Level Estimated
05:09AM -9.5193 -59.1078 141° Southeast  Level Estimated
05:10AM -9.6221 -59.0220 141° Southeast  Level Estimated
05:11AM -9.7249 -58.9362 141° Southeast  Level Estimated
05:12AM -9.8277 -58.8503 141° Southeast  Level Estimated
05:13AM -9.9305 -58.7644 141° Southeast  Level Estimated
05:14AM -10.0332 -58.6784 141° Southeast  Level Estimated
05:15AM -10.1360 -58.5923 140° Southeast  Level Estimated
05:16AM -10.2387 -58.5062 140° Southeast  Level Estimated
05:17AM -10.3413 -58.4201 140° Southeast  Level Estimated
05:18AM -10.4440 -58.3339 140° Southeast  Level Estimated
05:19AM -10.5466 -58.2476 140° Southeast  Level Estimated
05:20AM -10.6492 -58.1613 140° Southeast  Level Estimated
05:21AM -10.7518 -58.0749 140° Southeast  Level Estimated
05:22AM -10.8544 -57.9885 140° Southeast  Level Estimated
05:23AM -10.9569 -57.9020 140° Southeast  Level Estimated
05:24AM -11.0594 -57.8154 140° Southeast  Level Estimated
05:25AM -11.1619 -57.7288 140° Southeast  Level Estimated
05:26AM -11.2643 -57.6421 140° Southeast  Level Estimated
05:27AM -11.3668 -57.5554 140° Southeast  Level Estimated
05:28AM -11.4692 -57.4686 140° Southeast  Level Estimated
05:29AM -11.5716 -57.3817 140° Southeast  Level Estimated
05:30AM -11.6739 -57.2948 140° Southeast  Level Estimated
05:31AM -11.7762 -57.2078 140° Southeast  Level Estimated
05:32AM -11.8785 -57.1207 140° Southeast  Level Estimated
05:33AM -11.9808 -57.0336 140° Southeast  Level Estimated
05:34AM -12.0833 -56.9462 140° Southeast  Level Estimated
05:34AM -13.2010 -56.6630 140° Southeast 518 596 35,000  Level FlightAware
05:34AM -13.2660 -56.5980 136° Southeast 519 597 35,000  Level FlightAware
05:35AM -12.1857 -56.8588 140° Southeast  Level Estimated
05:35AM -13.3220 -56.5420 136° Southeast 520 598 35,000  Level FlightAware
05:36AM -13.4110 -56.4540 136° Southeast 521 600 35,000  Level FlightAware
05:37AM -13.4870 -56.3790 136° Southeast 522 601 35,000  Level FlightAware
05:37AM -13.5560 -56.3100 136° Southeast 523 602 35,000  Level FlightAware
05:38AM -13.6180 -56.2480 136° Southeast 523 602 35,000  Level FlightAware
05:38AM -13.6820 -56.1840 136° Southeast 523 602 35,000  Level FlightAware
05:39AM -13.7400 -56.1260 136° Southeast 523 602 35,000  Level FlightAware
05:40AM -13.8070 -56.0600 136° Southeast 523 602 35,000  Level FlightAware
05:40AM -13.8740 -55.9920 135° Southeast 524 603 35,000  Level FlightAware
05:41AM -13.9490 -55.9170 136° Southeast 523 602 35,000  Level FlightAware
05:41AM -14.0080 -55.8590 136° Southeast 523 602 35,000  Level FlightAware
05:42AM -14.0770 -55.7890 135° Southeast 523 602 35,000  Level FlightAware
05:43AM -14.1390 -55.7270 136° Southeast 522 601 35,000  Level FlightAware
05:43AM -14.1890 -55.6770 136° Southeast 522 601 35,000  Level FlightAware
05:44AM -14.2530 -55.6130 136° Southeast 522 601 35,000  Level FlightAware
05:44AM -14.3160 -55.5490 135° Southeast 521 600 35,000  Level FlightAware
05:45AM -14.3720 -55.4930 136° Southeast 521 600 35,000  Level FlightAware
05:46AM -14.4490 -55.4160 136° Southeast 521 600 35,000  Level FlightAware
05:46AM -14.5330 -55.3310 136° Southeast 521 600 35,000  Level FlightAware
05:47AM -14.5850 -55.2780 135° Southeast 522 601 35,000  Level FlightAware
05:48AM -14.6660 -55.1960 136° Southeast 523 602 35,000  Level FlightAware
05:48AM -14.7310 -55.1310 136° Southeast 523 602 35,000  Level FlightAware
05:49AM -14.7730 -55.0880 135° Southeast 523 602 35,000  Level FlightAware
05:50AM -14.8490 -55.0120 136° Southeast 525 604 35,000  Level FlightAware
05:50AM -14.9030 -54.9560 135° Southeast 525 604 35,000  Level FlightAware
05:51AM -14.9550 -54.9010 134° Southeast 525 604 35,000  Level FlightAware
05:51AM -15.0080 -54.8470 135° Southeast 525 604 35,000  Level FlightAware
05:52AM -15.0600 -54.7930 135° Southeast 525 604 35,000  Level FlightAware
05:53AM -15.1130 -54.7380 135° Southeast 525 604 35,000  Level FlightAware
05:53AM -15.1660 -54.6840 135° Southeast 525 604 35,000  Level FlightAware
05:54AM -15.2180 -54.6290 134° Southeast 525 604 35,000  Level FlightAware
05:54AM -15.2720 -54.5730 135° Southeast 525 604 35,000  Level FlightAware
05:55AM -15.3250 -54.5190 136° Southeast 525 604 35,000  Level FlightAware
05:56AM -15.3770 -54.4640 134° Southeast 525 604 35,000  Level FlightAware
05:56AM -15.4310 -54.4080 135° Southeast 525 604 35,000  Level FlightAware
05:57AM -15.4840 -54.3540 136° Southeast 525 604 35,000  Level FlightAware
05:57AM -15.5360 -54.2990 134° Southeast 525 604 35,000  Level FlightAware
05:58AM -15.5890 -54.2450 136° Southeast 525 604 35,000  Level FlightAware
05:59AM -15.6410 -54.1900 134° Southeast 525 604 35,000  Level FlightAware
05:59AM -15.6940 -54.1350 135° Southeast 525 604 35,000 64 Level FlightAware
06:02AM -15.9225 -53.9222 138° Southeast  Level FlightAware Approximate
06:03AM -16.0217 -53.8295 138° Southeast  Level FlightAware Approximate
06:04AM -16.1210 -53.7368 138° Southeast  Level FlightAware Approximate
06:05AM -16.2201 -53.6439 138° Southeast  Level FlightAware Approximate
06:06AM -16.3193 -53.5510 138° Southeast  Level FlightAware Approximate
06:07AM -16.4184 -53.4579 138° Southeast  Level FlightAware Approximate
06:08AM -16.5175 -53.3648 138° Southeast  Level FlightAware Approximate
06:09AM -16.6165 -53.2716 138° Southeast  Level FlightAware Approximate
06:10AM -16.7155 -53.1782 138° Southeast  Level FlightAware Approximate
06:11AM -16.8144 -53.0848 138° Southeast  Level FlightAware Approximate
06:12AM -16.9133 -52.9913 138° Southeast  Level FlightAware Approximate
06:13AM -17.0122 -52.8977 138° Southeast  Level FlightAware Approximate
06:14AM -17.1110 -52.8040 138° Southeast  Level FlightAware Approximate
06:15AM -17.2097 -52.7101 138° Southeast  Level FlightAware Approximate
06:16AM -17.3085 -52.6162 138° Southeast  Level FlightAware Approximate
06:17AM -17.4072 -52.5222 138° Southeast  Level FlightAware Approximate
06:18AM -17.5058 -52.4281 138° Southeast  Level FlightAware Approximate
06:19AM -17.6044 -52.3339 138° Southeast  Level FlightAware Approximate
06:20AM -17.7029 -52.2395 138° Southeast  Level FlightAware Approximate
06:21AM -17.8014 -52.1451 138° Southeast  Level FlightAware Approximate
06:22AM -17.8999 -52.0505 138° Southeast  Level FlightAware Approximate
06:23AM -17.9983 -51.9559 138° Southeast  Level FlightAware Approximate
06:24AM -18.0967 -51.8612 138° Southeast  Level FlightAware Approximate
06:25AM -18.1950 -51.7663 138° Southeast  Level FlightAware Approximate
06:26AM -18.2933 -51.6713 137° Southeast  Level FlightAware Approximate
06:27AM -18.3915 -51.5763 137° Southeast  Level FlightAware Approximate
06:28AM -18.4897 -51.4811 137° Southeast  Level FlightAware Approximate
06:29AM -18.5878 -51.3858 137° Southeast  Level FlightAware Approximate
06:30AM -18.6859 -51.2904 137° Southeast  Level FlightAware Approximate
06:30AM -19.0220 -50.6460 137° Southeast 524 603 37,000  Level FlightAware
06:30AM -19.0730 -50.5910 134° Southeast 526 605 37,000  Level FlightAware
06:31AM -18.7839 -51.1949 137° Southeast  Level FlightAware Approximate
06:31AM -19.1370 -50.5220 134° Southeast 528 608 37,000  Level FlightAware
06:32AM -19.1980 -50.4540 134° Southeast 526 605 37,000  Level FlightAware
06:32AM -19.2610 -50.3850 134° Southeast 526 605 37,000  Level FlightAware
06:33AM -19.3240 -50.3160 134° Southeast 528 608 37,000  Level FlightAware
06:33AM -19.3740 -50.2620 134° Southeast 527 606 37,000  Level FlightAware
06:34AM -19.4380 -50.1910 134° Southeast 529 609 37,000  Level FlightAware
06:34AM -19.4900 -50.1330 134° Southeast 529 609 37,000  Level FlightAware
06:35AM -19.5550 -50.0620 134° Southeast 531 611 37,000  Level FlightAware
06:36AM -19.6200 -49.9890 133° Southeast 529 609 37,000  Level FlightAware
06:36AM -19.6860 -49.9180 135° Southeast 528 608 37,000  Level FlightAware
06:37AM -19.7480 -49.8510 135° Southeast 527 606 37,000  Level FlightAware
06:38AM -19.8090 -49.7840 134° Southeast 528 608 37,000  Level FlightAware
06:38AM -19.8670 -49.7210 134° Southeast 528 608 37,000  Level FlightAware
06:39AM -19.9350 -49.6460 134° Southeast 529 609 37,000  Level FlightAware
06:39AM -19.9970 -49.5780 134° Southeast 530 610 37,000  Level FlightAware
06:40AM -20.0620 -49.5070 134° Southeast 531 611 37,000  Level FlightAware
06:41AM -20.1310 -49.4310 134° Southeast 531 611 37,000  Level FlightAware
06:41AM -20.1840 -49.3720 134° Southeast 531 611 37,000  Level FlightAware
06:42AM -20.2460 -49.3040 134° Southeast 530 610 37,000  Level FlightAware
06:42AM -20.3040 -49.2400 134° Southeast 531 611 37,000  Level FlightAware
06:43AM -20.3680 -49.1690 134° Southeast 532 612 37,000  Level FlightAware
06:44AM -20.4270 -49.1040 134° Southeast 534 615 37,000  Level FlightAware
06:44AM -20.4890 -49.0350 134° Southeast 534 615 37,000  Level FlightAware
06:45AM -20.5510 -48.9670 134° Southeast 534 615 37,000  Level FlightAware
06:45AM -20.6030 -48.9090 134° Southeast 532 612 37,000  Level FlightAware
06:46AM -20.6670 -48.8380 134° Southeast 534 615 37,000  Level FlightAware
06:46AM -20.7260 -48.7720 134° Southeast 534 615 37,000  Level FlightAware
06:47AM -20.7880 -48.7030 134° Southeast 536 617 37,000  Level FlightAware
06:48AM -20.8520 -48.6310 134° Southeast 537 618 37,000  Level FlightAware
06:48AM -20.9040 -48.5720 133° Southeast 539 620 37,000  Level FlightAware
06:49AM -20.9660 -48.5030 134° Southeast 539 620 37,000  Level FlightAware
06:49AM -21.0270 -48.4340 133° Southeast 541 623 37,000  Level FlightAware
06:50AM -21.0860 -48.3680 134° Southeast 541 623 37,000  Level FlightAware
06:51AM -21.1480 -48.2970 133° Southeast 541 623 37,000  Level FlightAware
06:51AM -21.2110 -48.2260 134° Southeast 544 626 37,000 -333 Level FlightAware
06:52AM -21.2730 -48.1560 134° Southeast 538 619 36,600 -1,059 Descending FlightAware
06:52AM -21.3260 -48.0950 133° Southeast 533 613 35,800 -1,412 Descending FlightAware
06:53AM -21.3870 -48.0260 134° Southeast 527 606 35,000 -1,412 Descending FlightAware
06:53AM -21.4410 -47.9650 134° Southeast 523 602 34,200 -1,286 Descending FlightAware
06:54AM -21.5030 -47.8950 134° Southeast 512 589 33,500 -1,135 Descending FlightAware
06:55AM -21.5610 -47.8290 133° Southeast 505 581 32,800 -1,167 Descending FlightAware
06:55AM -21.6180 -47.7650 134° Southeast 496 571 32,100 -1,235 Descending FlightAware
06:56AM -21.6690 -47.7070 133° Southeast 488 562 31,400 -1,391 Descending FlightAware
06:56AM -21.7250 -47.6430 133° Southeast 482 555 30,500 -1,500 Descending FlightAware
06:57AM -21.7780 -47.5820 133° Southeast 474 545 29,600 -1,522 Descending FlightAware
06:58AM -21.8270 -47.5260 133° Southeast 465 535 28,800 -1,457 Descending FlightAware
06:58AM -21.8800 -47.4650 133° Southeast 449 517 27,900 -1,378 Descending FlightAware
06:59AM -21.9310 -47.4060 133° Southeast 428 493 27,100 -1,391 Descending FlightAware
06:59AM -21.9740 -47.3590 135° Southeast 413 475 26,300 -1,765 Descending FlightAware
07:00AM -22.0330 -47.3250 152° Southeast 396 456 25,100 -2,028 Descending FlightAware
07:00AM -22.0950 -47.2990 159° South 392 451 23,900 -1,765 Descending FlightAware
07:01AM -22.1490 -47.2770 159° South 384 442 23,100 -1,543 Descending FlightAware
07:02AM -22.2120 -47.2510 159° South 377 434 22,100 -1,636 Descending FlightAware
07:02AM -22.2580 -47.2320 159° South 371 427 21,300 -1,594 Descending FlightAware
07:03AM -22.3140 -47.2090 159° South 364 419 20,400 -1,147 Descending FlightAware
07:03AM -22.3630 -47.1880 158° South 362 417 20,000 -364 Descending FlightAware
07:04AM -22.4180 -47.1650 159° South 359 413 20,000  Level FlightAware
07:04AM -22.4760 -47.1410 159° South 358 412 20,000  Level FlightAware
07:05AM -22.5330 -47.1160 158° South 359 413 20,000 -583 Level FlightAware
07:06AM -22.5880 -47.0930 159° South 365 420 19,300 -1,182 Descending FlightAware
07:06AM -22.6340 -47.0740 159° South 359 413 18,700 -1,235 Descending FlightAware
07:07AM -22.6920 -47.0490 158° South 350 403 17,900 -1,360 Descending FlightAware
07:07AM -22.7460 -47.0270 159° South 343 395 17,000 -1,457 Descending FlightAware
07:08AM -22.7970 -47.0050 158° South 335 386 16,200 -1,543 Descending FlightAware
07:09AM -22.8480 -46.9840 159° South 335 386 15,200 -1,543 Descending FlightAware
07:09AM -22.8980 -46.9630 159° South 327 376 14,400 -1,478 Descending FlightAware
07:10AM -22.9490 -46.9420 159° South 319 367 13,500 -1,500 Descending FlightAware
07:10AM -22.9970 -46.9210 158° South 311 358 12,600 -1,543 Descending FlightAware
07:11AM -23.0420 -46.9030 160° South 303 349 11,700 -1,263 Descending FlightAware
07:12AM -23.0970 -46.8790 158° South 303 349 11,000 -568 Descending FlightAware
07:12AM -23.1400 -46.8610 159° South 304 350 11,000  Level FlightAware
07:13AM -23.1890 -46.8410 159° South 303 349 11,000  Level FlightAware
07:13AM -23.2300 -46.8230 158° South 291 335 11,000 -529 Level FlightAware
07:14AM -23.2740 -46.8040 158° South 276 318 10,400 -1,579 Descending FlightAware
07:14AM -23.2990 -46.7940 160° South 280 322 9,500 -2,727 Descending FlightAware
07:15AM -23.3280 -46.7820 159° South 287 330 8,400 -2,757 Descending FlightAware
07:15AM -23.3460 -46.7740 158° South 280 322 7,800 -2,294 Descending FlightAware
07:15AM -23.3680 -46.7630 155° Southeast 272 313 7,100 -1,200 Descending FlightAware
07:16AM -23.3890 -46.7470 145° Southeast 258 297 7,000 -545 Descending FlightAware
07:16AM -23.4100 -46.7280 140° Southeast 253 291 6,700 -1,043 Descending FlightAware
07:16AM -23.4290 -46.7100 139° Southeast 255 293 6,200 -1,429 Descending FlightAware
07:17AM -23.4460 -46.6910 134° Southeast 258 297 5,700 -1,688 Descending FlightAware
07:17AM -23.4540 -46.6770 122° Southeast 256 295 5,300 -1,500 Descending FlightAware
07:17AM -23.4640 -46.6550 116° Southeast 241 277 4,900 -955 Descending FlightAware
07:18AM -23.4740 -46.6290 113° Southeast 216 249 4,600 -643 Descending FlightAware
07:18AM -23.4740 -46.6250 90° East 210 242 4,600 -500 Level FlightAware
07:18AM -23.4710 -46.6070 80° East 191 220 4,400 -667 Descending FlightAware
07:18AM -23.4650 -46.5840 74° East 177 204 4,100 -833 Descending FlightAware
07:19AM -23.4620 -46.5750 70° East 175 201 3,900 -1,000 Descending FlightAware
07:19AM -23.4570 -46.5550 75° East 166 191 3,500 -800 Descending FlightAware
07:19AM -23.4530 -46.5390 75° East 162 186 3,300 -750 Descending FlightAware
07:20AM -23.4490 -46.5240 74° East 158 182 3,000 -766 Descending FlightAware
07:20AM -23.4430 -46.5040 72° East 148 170 2,700 -811 Descending FlightAware
07:20AM -23.4410 -46.4970 73° East 148 170 2,500 -686 Descending FlightAware
07:21AM -23.4370 -46.4790 76° East 138 159 2,300 -480 Descending FlightAware
07:21AM -23.4340 -46.4700 70° East 74 85 -6,900 Descending FlightAware